createdAt,value
2019-03-05T00:04:13.259Z,9.40
2019-03-05T00:09:15.728Z,9.37
2019-03-05T00:14:18.930Z,9.45
2019-03-05T00:19:20.651Z,9.46
2019-03-05T00:24:57.062Z,9.45
2019-03-05T00:30:17.861Z,9.36
2019-03-05T00:35:29.553Z,9.33
2019-03-05T00:40:34.971Z,9.32
2019-03-05T00:45:40.444Z,9.30
2019-03-05T00:51:01.229Z,9.16
2019-03-05T00:56:12.466Z,9.02
2019-03-05T01:01:14.924Z,8.97
2019-03-05T01:06:16.865Z,8.96
2019-03-05T01:11:19.272Z,8.92
2019-03-05T01:16:21.751Z,8.96
2019-03-05T01:21:24.183Z,8.87
2019-03-05T01:26:26.640Z,8.89
2019-03-05T01:31:47.392Z,8.95
2019-03-05T01:36:49.873Z,8.90
2019-03-05T01:41:52.317Z,8.90
2019-03-05T01:46:54.771Z,8.95
2019-03-05T01:51:57.237Z,8.96
2019-03-05T01:56:59.693Z,8.96
2019-03-05T02:02:02.148Z,8.98
2019-03-05T02:07:04.603Z,9.00
2019-03-05T02:12:07.059Z,8.98
2019-03-05T02:17:09.543Z,8.95
2019-03-05T02:22:21.285Z,8.95
2019-03-05T02:27:48.605Z,8.90
2019-03-05T02:32:56.991Z,8.90
2019-03-05T02:38:24.220Z,8.97
2019-03-05T02:43:26.675Z,9.00
2019-03-05T02:48:47.640Z,9.01
2019-03-05T02:53:59.026Z,8.99
2019-03-05T02:59:00.949Z,9.09
2019-03-05T03:04:03.400Z,9.21
2019-03-05T03:09:20.869Z,9.07
2019-03-05T03:14:23.331Z,8.95
2019-03-05T03:19:25.787Z,8.93
2019-03-05T03:24:28.225Z,8.96
2019-03-05T03:29:30.697Z,8.92
2019-03-05T03:34:33.209Z,8.91
2019-03-05T03:39:35.586Z,8.85
2019-03-05T03:44:38.060Z,8.83
2019-03-05T03:49:40.510Z,8.75
2019-03-05T03:54:42.966Z,8.67
2019-03-05T03:59:45.431Z,8.64
2019-03-05T04:04:47.876Z,8.60
2019-03-05T04:09:50.327Z,8.55
2019-03-05T04:14:52.790Z,8.42
2019-03-05T04:19:55.256Z,8.45
2019-03-05T04:24:57.698Z,8.27
2019-03-05T04:30:00.396Z,8.29
2019-03-05T04:35:02.627Z,8.32
2019-03-05T04:40:05.096Z,8.44
2019-03-05T04:45:26.093Z,8.52
2019-03-05T04:50:31.394Z,8.60
2019-03-05T04:55:33.843Z,8.58
2019-03-05T05:00:36.292Z,8.56
2019-03-05T05:05:38.760Z,8.56
2019-03-05T05:10:41.212Z,8.61
2019-03-05T05:15:43.661Z,8.70
2019-03-05T05:20:46.116Z,8.67
2019-03-05T05:25:48.589Z,8.73
2019-03-05T05:30:51.031Z,8.75
2019-03-05T05:35:53.494Z,8.79
2019-03-05T05:40:55.940Z,8.79
2019-03-05T05:45:58.402Z,8.80
2019-03-05T05:51:00.864Z,8.80
2019-03-05T05:56:03.322Z,8.82
2019-03-05T06:01:05.771Z,8.86
2019-03-05T06:06:08.217Z,8.86
2019-03-05T06:11:10.676Z,8.84
2019-03-05T06:16:13.127Z,8.93
2019-03-05T06:21:15.582Z,8.96
2019-03-05T06:26:18.044Z,8.99
2019-03-05T06:31:20.501Z,9.14
2019-03-05T06:36:22.970Z,9.13
2019-03-05T06:41:25.446Z,9.13
2019-03-05T06:46:27.915Z,9.24
2019-03-05T06:51:30.389Z,9.25
2019-03-05T06:56:32.838Z,9.25
2019-03-05T07:01:35.288Z,9.35
2019-03-05T07:06:46.741Z,9.44
2019-03-05T07:11:52.242Z,9.36
2019-03-05T07:16:57.658Z,9.46
2019-03-05T07:22:02.780Z,9.54
2019-03-05T07:27:05.320Z,9.53
2019-03-05T07:32:07.732Z,9.72
2019-03-05T07:37:10.215Z,9.95
2019-03-05T07:42:12.674Z,10.07
2019-03-05T07:47:15.165Z,10.28
2019-03-05T07:52:17.621Z,10.44
2019-03-05T07:57:20.081Z,10.82
2019-03-05T08:02:22.562Z,12.93
2019-03-05T08:07:25.127Z,16.25
2019-03-05T08:12:27.493Z,16.46
2019-03-05T08:17:29.967Z,16.21
2019-03-05T08:22:32.436Z,16.10
2019-03-05T08:27:34.900Z,17.77
2019-03-05T08:32:37.358Z,17.72
2019-03-05T08:37:39.836Z,17.09
2019-03-05T08:42:42.320Z,15.71
2019-03-05T08:47:44.773Z,14.63
2019-03-05T08:52:47.302Z,14.28
2019-03-05T08:57:49.686Z,13.89
2019-03-05T09:02:52.175Z,12.93
2019-03-05T09:07:54.641Z,12.63
2019-03-05T09:12:57.100Z,12.38
2019-03-05T09:17:59.578Z,12.37
2019-03-05T09:23:02.041Z,12.16
2019-03-05T09:28:04.498Z,11.87
2019-03-05T09:33:07.135Z,11.78
2019-03-05T09:38:09.441Z,11.57
2019-03-05T09:43:11.914Z,11.42
2019-03-05T09:48:14.388Z,11.08
2019-03-05T09:53:16.834Z,10.67
2019-03-05T09:58:19.298Z,10.57
2019-03-05T10:03:21.780Z,10.65
2019-03-05T10:08:32.020Z,10.69
2019-03-05T10:13:26.739Z,10.92
2019-03-05T10:18:29.571Z,11.12
2019-03-05T10:23:31.963Z,11.22
2019-03-05T10:28:34.432Z,11.45
2019-03-05T10:33:36.921Z,11.60
2019-03-05T10:38:39.438Z,11.99
2019-03-05T10:43:41.846Z,12.28
2019-03-05T10:48:44.310Z,12.39
2019-03-05T10:53:46.779Z,12.49
2019-03-05T10:58:49.259Z,12.67
2019-03-05T11:03:51.731Z,12.73
2019-03-05T11:08:54.204Z,12.58
2019-03-05T11:13:56.674Z,12.55
2019-03-05T11:18:59.127Z,12.19
2019-03-05T11:24:01.596Z,11.98
2019-03-05T11:29:04.063Z,11.71
2019-03-05T11:34:06.533Z,11.54
2019-03-05T11:39:09.000Z,11.21
2019-03-05T11:44:11.457Z,11.10
2019-03-05T11:49:13.949Z,10.89
2019-03-05T11:54:16.433Z,11.12
2019-03-05T11:59:18.907Z,11.29
2019-03-05T12:04:21.372Z,11.92
2019-03-05T12:09:23.866Z,12.08
2019-03-05T12:14:26.324Z,12.14
2019-03-05T12:19:28.811Z,12.41
2019-03-05T12:24:31.282Z,12.48
2019-03-05T12:29:33.786Z,12.42
2019-03-05T12:34:36.270Z,11.85
2019-03-05T12:39:38.733Z,11.61
2019-03-05T12:44:41.202Z,11.48
2019-03-05T12:49:43.705Z,11.21
2019-03-05T12:54:46.196Z,11.25
2019-03-05T12:59:48.685Z,11.30
2019-03-05T13:04:51.148Z,11.47
2019-03-05T13:09:56.878Z,11.35
2019-03-05T13:14:56.062Z,11.12
2019-03-05T13:19:58.520Z,11.14
2019-03-05T13:25:00.989Z,10.72
2019-03-05T13:30:03.467Z,10.62
2019-03-05T13:35:05.949Z,10.67
2019-03-05T13:40:08.428Z,11.03
2019-03-05T13:45:10.891Z,11.19
2019-03-05T13:50:24.129Z,10.91
2019-03-05T13:55:26.907Z,10.78
2019-03-05T14:00:27.075Z,10.87
2019-03-05T14:05:47.879Z,11.03
2019-03-05T14:10:50.366Z,10.77
2019-03-05T14:15:52.868Z,10.38
2019-03-05T14:20:55.311Z,10.31
2019-03-05T14:25:57.827Z,10.47
2019-03-05T14:31:00.261Z,10.83
2019-03-05T14:36:02.732Z,11.12
2019-03-05T14:41:05.242Z,11.20
2019-03-05T14:46:07.691Z,11.37
2019-03-05T14:51:10.167Z,11.38
2019-03-05T14:56:12.781Z,11.34
2019-03-05T15:01:15.228Z,11.47
2019-03-05T15:06:17.715Z,11.48
2019-03-05T15:11:20.195Z,10.91
2019-03-05T15:16:22.680Z,10.81
2019-03-05T15:21:25.105Z,10.88
2019-03-05T15:26:27.582Z,11.09
2019-03-05T15:31:30.056Z,11.09
2019-03-05T15:36:32.519Z,11.00
2019-03-05T15:41:35.032Z,10.87
2019-03-05T15:46:37.432Z,10.76
2019-03-05T15:51:39.988Z,10.58
2019-03-05T15:56:42.409Z,10.41
2019-03-05T16:01:44.880Z,10.34
2019-03-05T16:06:49.657Z,10.32
2019-03-05T16:11:49.847Z,10.32
2019-03-05T16:16:52.857Z,10.33
2019-03-05T16:21:54.790Z,10.13
2019-03-05T16:26:57.893Z,10.09
2019-03-05T16:32:14.958Z,10.13
2019-03-05T16:37:17.434Z,10.06
2019-03-05T16:42:25.902Z,9.94
2019-03-05T16:47:37.465Z,9.92
2019-03-05T16:52:39.929Z,9.89
2019-03-05T16:57:51.275Z,9.82
2019-03-05T17:02:56.307Z,9.79
2019-03-05T17:07:58.917Z,9.71
2019-03-05T17:13:01.413Z,9.76
2019-03-05T17:18:03.883Z,9.80
2019-03-05T17:23:06.361Z,9.65
2019-03-05T17:28:08.812Z,9.65
2019-03-05T17:33:11.317Z,9.58
2019-03-05T17:38:13.778Z,9.35
2019-03-05T17:43:16.464Z,9.45
2019-03-05T17:48:18.928Z,9.52
2019-03-05T17:53:21.388Z,9.37
2019-03-05T17:58:23.852Z,9.25
2019-03-05T18:03:26.321Z,9.30
2019-03-05T18:08:28.804Z,9.28
2019-03-05T18:13:31.271Z,9.22
2019-03-05T18:18:33.726Z,9.14
2019-03-05T18:23:36.185Z,9.06
2019-03-05T18:28:38.670Z,9.02
2019-03-05T18:33:41.133Z,9.02
2019-03-05T18:38:43.622Z,8.96
2019-03-05T18:43:46.090Z,8.98
2019-03-05T18:48:48.562Z,8.97
2019-03-05T18:53:51.030Z,8.97
2019-03-05T18:58:53.514Z,8.96
2019-03-05T19:03:55.996Z,8.93
2019-03-05T19:08:58.460Z,8.96
2019-03-05T19:14:00.936Z,9.06
2019-03-05T19:19:03.406Z,8.99
2019-03-05T19:24:05.880Z,8.98
2019-03-05T19:29:08.358Z,8.98
2019-03-05T19:34:10.834Z,8.97
2019-03-05T19:39:13.297Z,8.93
2019-03-05T19:44:15.780Z,8.86
2019-03-05T19:49:18.250Z,8.88
2019-03-05T19:54:20.725Z,8.95
2019-03-05T19:59:23.191Z,8.92
2019-03-05T20:04:25.677Z,8.94
2019-03-05T20:09:28.146Z,8.95
2019-03-05T20:14:30.628Z,8.91
2019-03-05T20:19:33.120Z,9.02
2019-03-05T20:24:35.564Z,9.06
2019-03-05T20:29:38.016Z,9.03
2019-03-05T20:34:40.503Z,8.95
2019-03-05T20:39:43.018Z,8.98
2019-03-05T20:44:45.467Z,8.98
2019-03-05T20:49:47.933Z,9.02
2019-03-05T20:54:50.394Z,8.87
2019-03-05T20:59:52.882Z,8.96
2019-03-05T21:04:55.410Z,9.03
2019-03-05T21:09:57.869Z,9.04
2019-03-05T21:15:00.480Z,8.99
2019-03-05T21:20:02.973Z,9.04
2019-03-05T21:25:05.459Z,9.02
2019-03-05T21:30:22.830Z,8.98
2019-03-05T21:35:25.294Z,9.01
2019-03-05T21:40:27.796Z,9.15
2019-03-05T21:45:45.306Z,9.19
2019-03-05T21:50:47.757Z,9.12
2019-03-05T21:55:50.222Z,9.18
2019-03-05T22:00:52.702Z,9.12
2019-03-05T22:05:55.167Z,9.20
2019-03-05T22:10:57.674Z,9.20
2019-03-05T22:16:00.139Z,9.30
2019-03-05T22:21:02.602Z,9.30
2019-03-05T22:26:05.085Z,9.20
2019-03-05T22:31:07.575Z,9.08
2019-03-05T22:36:10.034Z,9.21
2019-03-05T22:41:12.497Z,8.97
2019-03-05T22:46:14.960Z,8.93
2019-03-05T22:51:17.421Z,8.91
2019-03-05T22:56:19.905Z,8.94
2019-03-05T23:01:22.401Z,8.95
2019-03-05T23:06:24.848Z,8.99
2019-03-05T23:11:27.331Z,8.99
2019-03-05T23:16:29.784Z,8.94
2019-03-05T23:21:32.279Z,8.95
2019-03-05T23:26:34.741Z,8.91
2019-03-05T23:31:37.212Z,8.93
2019-03-05T23:36:39.682Z,9.03
2019-03-05T23:41:42.152Z,8.94
2019-03-05T23:46:44.604Z,8.86
2019-03-05T23:51:47.071Z,8.87
2019-03-05T23:56:49.542Z,8.83
